sensor_id;sensor_type;location;lat;lon;timestamp;P1;durP1;ratioP1;P2;durP2;ratioP2
1350;SDS011;669;50.206;9.998;2022-11-20T00:01:04;15.40;;;10.80;;
1350;SDS011;669;50.206;9.998;2022-11-20T00:03:33;17.90;;;12.50;;
1350;SDS011;669;50.206;9.998;2022-11-20T00:06:02;22.00;;;11.30;;
1350;SDS011;669;50.206;9.998;2022-11-20T00:08:31;18.70;;;11.63;;
1350;SDS011;669;50.206;9.998;2022-11-20T00:11:02;19.97;;;12.23;;
1350;SDS011;669;50.206;9.998;2022-11-20T00:13:30;19.97;;;11.00;;
1350;SDS011;669;50.206;9.998;2022-11-20T00:15:58;19.83;;;11.60;;
1350;SDS011;669;50.206;9.998;2022-11-20T00:18:28;19.77;;;11.60;;
1350;SDS011;669;50.206;9.998;2022-11-20T00:21:00;15.13;;;9.43;;
1350;SDS011;669;50.206;9.998;2022-11-20T00:23:28;18.00;;;11.60;;
1350;SDS011;669;50.206;9.998;2022-11-20T00:26:01;17.70;;;11.03;;
1350;SDS011;669;50.206;9.998;2022-11-20T00:28:30;16.53;;;11.20;;
1350;SDS011;669;50.206;9.998;2022-11-20T00:31:02;20.50;;;11.83;;
1350;SDS011;669;50.206;9.998;2022-11-20T00:33:33;17.03;;;10.33;;
1350;SDS011;669;50.206;9.998;2022-11-20T00:36:01;14.67;;;10.37;;
1350;SDS011;669;50.206;9.998;2022-11-20T00:38:30;18.87;;;11.43;;
1350;SDS011;669;50.206;9.998;2022-11-20T00:40:58;17.47;;;11.77;;
1350;SDS011;669;50.206;9.998;2022-11-20T00:43:27;21.33;;;11.27;;
1350;SDS011;669;50.206;9.998;2022-11-20T00:45:56;19.27;;;11.83;;
1350;SDS011;669;50.206;9.998;2022-11-20T00:48:25;19.97;;;11.43;;
1350;SDS011;669;50.206;9.998;2022-11-20T00:50:55;19.07;;;12.27;;
1350;SDS011;669;50.206;9.998;2022-11-20T00:53:23;18.53;;;11.23;;
1350;SDS011;669;50.206;9.998;2022-11-20T00:55:52;21.00;;;12.70;;
1350;SDS011;669;50.206;9.998;2022-11-20T00:58:22;20.30;;;12.23;;
1350;SDS011;669;50.206;9.998;2022-11-20T01:00:51;19.00;;;11.77;;
1350;SDS011;669;50.206;9.998;2022-11-20T01:03:19;20.40;;;13.13;;
1350;SDS011;669;50.206;9.998;2022-11-20T01:05:52;19.60;;;10.90;;
1350;SDS011;669;50.206;9.998;2022-11-20T01:08:21;15.63;;;10.10;;
1350;SDS011;669;50.206;9.998;2022-11-20T01:10:49;22.37;;;12.13;;
1350;SDS011;669;50.206;9.998;2022-11-20T01:13:17;18.90;;;13.00;;
1350;SDS011;669;50.206;9.998;2022-11-20T01:16:03;17.93;;;12.47;;
1350;SDS011;669;50.206;9.998;2022-11-20T01:18:32;20.57;;;12.30;;
1350;SDS011;669;50.206;9.998;2022-11-20T01:21:00;18.87;;;11.60;;
1350;SDS011;669;50.206;9.998;2022-11-20T01:23:31;19.30;;;12.00;;
1350;SDS011;669;50.206;9.998;2022-11-20T01:26:00;17.63;;;11.10;;
1350;SDS011;669;50.206;9.998;2022-11-20T01:28:29;22.17;;;13.80;;
1350;SDS011;669;50.206;9.998;2022-11-20T01:30:58;20.70;;;11.47;;
1350;SDS011;669;50.206;9.998;2022-11-20T01:33:26;22.70;;;13.87;;
1350;SDS011;669;50.206;9.998;2022-11-20T01:36:02;22.97;;;12.73;;
1350;SDS011;669;50.206;9.998;2022-11-20T01:38:33;20.07;;;13.50;;
1350;SDS011;669;50.206;9.998;2022-11-20T01:41:01;24.40;;;14.37;;
1350;SDS011;669;50.206;9.998;2022-11-20T01:43:29;20.43;;;12.27;;
1350;SDS011;669;50.206;9.998;2022-11-20T01:45:58;19.83;;;12.60;;
1350;SDS011;669;50.206;9.998;2022-11-20T01:48:30;22.90;;;13.40;;
1350;SDS011;669;50.206;9.998;2022-11-20T01:51:02;20.80;;;13.03;;
1350;SDS011;669;50.206;9.998;2022-11-20T01:53:34;17.17;;;10.93;;
1350;SDS011;669;50.206;9.998;2022-11-20T01:56:04;21.07;;;12.37;;
1350;SDS011;669;50.206;9.998;2022-11-20T01:58:35;23.23;;;13.00;;
1350;SDS011;669;50.206;9.998;2022-11-20T02:01:08;22.97;;;13.80;;
1350;SDS011;669;50.206;9.998;2022-11-20T02:03:37;19.37;;;12.03;;
1350;SDS011;669;50.206;9.998;2022-11-20T02:06:06;24.83;;;12.73;;
1350;SDS011;669;50.206;9.998;2022-11-20T02:08:41;23.03;;;14.00;;
1350;SDS011;669;50.206;9.998;2022-11-20T02:11:09;22.90;;;13.90;;
1350;SDS011;669;50.206;9.998;2022-11-20T02:13:38;23.53;;;13.40;;
1350;SDS011;669;50.206;9.998;2022-11-20T02:16:10;21.00;;;14.63;;
1350;SDS011;669;50.206;9.998;2022-11-20T02:18:41;19.23;;;12.37;;
1350;SDS011;669;50.206;9.998;2022-11-20T02:21:12;20.30;;;13.50;;
1350;SDS011;669;50.206;9.998;2022-11-20T02:24:01;20.23;;;12.70;;
1350;SDS011;669;50.206;9.998;2022-11-20T02:26:35;22.60;;;15.77;;
1350;SDS011;669;50.206;9.998;2022-11-20T02:29:15;27.30;;;13.83;;
1350;SDS011;669;50.206;9.998;2022-11-20T02:31:45;19.73;;;14.20;;
1350;SDS011;669;50.206;9.998;2022-11-20T02:34:14;19.50;;;12.40;;
1350;SDS011;669;50.206;9.998;2022-11-20T02:36:42;24.77;;;14.87;;
1350;SDS011;669;50.206;9.998;2022-11-20T02:39:12;21.20;;;12.57;;
1350;SDS011;669;50.206;9.998;2022-11-20T02:41:43;20.03;;;13.87;;
1350;SDS011;669;50.206;9.998;2022-11-20T02:44:11;23.60;;;14.70;;
1350;SDS011;669;50.206;9.998;2022-11-20T02:46:39;26.47;;;13.40;;
1350;SDS011;669;50.206;9.998;2022-11-20T02:49:07;19.50;;;12.77;;
1350;SDS011;669;50.206;9.998;2022-11-20T02:51:35;22.57;;;13.57;;
1350;SDS011;669;50.206;9.998;2022-11-20T02:54:03;27.03;;;14.60;;
1350;SDS011;669;50.206;9.998;2022-11-20T02:56:33;26.40;;;15.27;;
1350;SDS011;669;50.206;9.998;2022-11-20T02:59:01;26.17;;;16.00;;
1350;SDS011;669;50.206;9.998;2022-11-20T03:01:29;22.03;;;13.83;;
1350;SDS011;669;50.206;9.998;2022-11-20T03:03:57;29.47;;;15.13;;
1350;SDS011;669;50.206;9.998;2022-11-20T03:06:25;24.30;;;14.53;;
1350;SDS011;669;50.206;9.998;2022-11-20T03:08:53;31.30;;;14.80;;
1350;SDS011;669;50.206;9.998;2022-11-20T03:11:21;25.07;;;14.80;;
1350;SDS011;669;50.206;9.998;2022-11-20T03:13:50;23.47;;;14.00;;
1350;SDS011;669;50.206;9.998;2022-11-20T03:16:19;20.07;;;13.67;;
1350;SDS011;669;50.206;9.998;2022-11-20T03:18:48;23.23;;;13.93;;
1350;SDS011;669;50.206;9.998;2022-11-20T03:21:16;22.67;;;14.47;;
1350;SDS011;669;50.206;9.998;2022-11-20T03:23:44;20.67;;;11.90;;
1350;SDS011;669;50.206;9.998;2022-11-20T03:26:13;19.97;;;12.23;;
1350;SDS011;669;50.206;9.998;2022-11-20T03:28:45;17.90;;;11.50;;
1350;SDS011;669;50.206;9.998;2022-11-20T03:31:16;18.80;;;11.60;;
1350;SDS011;669;50.206;9.998;2022-11-20T03:33:45;23.03;;;14.63;;
1350;SDS011;669;50.206;9.998;2022-11-20T03:36:14;19.87;;;11.80;;
1350;SDS011;669;50.206;9.998;2022-11-20T03:38:43;19.73;;;12.40;;
1350;SDS011;669;50.206;9.998;2022-11-20T03:41:12;21.87;;;12.77;;
1350;SDS011;669;50.206;9.998;2022-11-20T03:43:42;20.77;;;12.90;;
1350;SDS011;669;50.206;9.998;2022-11-20T03:46:15;24.13;;;14.67;;
1350;SDS011;669;50.206;9.998;2022-11-20T03:48:44;19.03;;;12.83;;
1350;SDS011;669;50.206;9.998;2022-11-20T03:51:17;23.27;;;14.63;;
1350;SDS011;669;50.206;9.998;2022-11-20T03:53:47;23.80;;;14.50;;
1350;SDS011;669;50.206;9.998;2022-11-20T03:56:16;24.07;;;15.07;;
1350;SDS011;669;50.206;9.998;2022-11-20T03:58:46;22.17;;;13.70;;
1350;SDS011;669;50.206;9.998;2022-11-20T04:01:16;25.63;;;14.10;;
1350;SDS011;669;50.206;9.998;2022-11-20T04:03:45;21.63;;;15.17;;
1350;SDS011;669;50.206;9.998;2022-11-20T04:06:14;23.80;;;13.60;;
1350;SDS011;669;50.206;9.998;2022-11-20T04:08:44;24.03;;;13.97;;
1350;SDS011;669;50.206;9.998;2022-11-20T04:11:19;22.30;;;11.73;;
1350;SDS011;669;50.206;9.998;2022-11-20T04:13:48;24.03;;;13.73;;
1350;SDS011;669;50.206;9.998;2022-11-20T04:16:19;20.03;;;12.23;;
1350;SDS011;669;50.206;9.998;2022-11-20T04:18:50;17.27;;;11.47;;
1350;SDS011;669;50.206;9.998;2022-11-20T04:21:20;22.90;;;14.53;;
1350;SDS011;669;50.206;9.998;2022-11-20T04:23:48;23.13;;;12.83;;
1350;SDS011;669;50.206;9.998;2022-11-20T04:26:16;19.93;;;12.40;;
1350;SDS011;669;50.206;9.998;2022-11-20T04:28:44;21.03;;;12.60;;
1350;SDS011;669;50.206;9.998;2022-11-20T04:31:13;19.23;;;11.80;;
1350;SDS011;669;50.206;9.998;2022-11-20T04:33:43;19.13;;;12.43;;
1350;SDS011;669;50.206;9.998;2022-11-20T04:36:12;23.17;;;12.37;;
1350;SDS011;669;50.206;9.998;2022-11-20T04:38:42;16.70;;;11.63;;
1350;SDS011;669;50.206;9.998;2022-11-20T04:41:12;20.13;;;13.00;;
1350;SDS011;669;50.206;9.998;2022-11-20T04:43:46;19.33;;;12.33;;
1350;SDS011;669;50.206;9.998;2022-11-20T04:46:15;16.50;;;11.70;;
1350;SDS011;669;50.206;9.998;2022-11-20T04:48:45;20.60;;;12.30;;
1350;SDS011;669;50.206;9.998;2022-11-20T04:51:14;17.80;;;10.70;;
1350;SDS011;669;50.206;9.998;2022-11-20T04:53:42;17.67;;;11.73;;
1350;SDS011;669;50.206;9.998;2022-11-20T04:56:11;22.07;;;13.43;;
1350;SDS011;669;50.206;9.998;2022-11-20T04:58:39;18.40;;;11.47;;
1350;SDS011;669;50.206;9.998;2022-11-20T05:01:09;21.17;;;12.73;;
1350;SDS011;669;50.206;9.998;2022-11-20T05:03:38;21.53;;;13.87;;
1350;SDS011;669;50.206;9.998;2022-11-20T05:06:10;18.53;;;12.23;;
1350;SDS011;669;50.206;9.998;2022-11-20T05:08:39;23.20;;;12.90;;
1350;SDS011;669;50.206;9.998;2022-11-20T05:11:09;19.90;;;11.00;;
1350;SDS011;669;50.206;9.998;2022-11-20T05:13:38;21.60;;;12.43;;
1350;SDS011;669;50.206;9.998;2022-11-20T05:16:07;19.00;;;12.13;;
1350;SDS011;669;50.206;9.998;2022-11-20T05:18:36;17.93;;;11.10;;
1350;SDS011;669;50.206;9.998;2022-11-20T05:21:05;18.23;;;11.50;;
1350;SDS011;669;50.206;9.998;2022-11-20T05:23:35;21.33;;;11.53;;
1350;SDS011;669;50.206;9.998;2022-11-20T05:26:04;20.97;;;12.67;;
1350;SDS011;669;50.206;9.998;2022-11-20T05:28:33;16.47;;;10.97;;
1350;SDS011;669;50.206;9.998;2022-11-20T05:31:05;18.87;;;11.63;;
1350;SDS011;669;50.206;9.998;2022-11-20T05:33:34;20.00;;;12.43;;
1350;SDS011;669;50.206;9.998;2022-11-20T05:36:03;24.50;;;12.93;;
1350;SDS011;669;50.206;9.998;2022-11-20T05:38:31;22.33;;;13.80;;
1350;SDS011;669;50.206;9.998;2022-11-20T05:41:04;19.27;;;11.30;;
1350;SDS011;669;50.206;9.998;2022-11-20T05:43:32;21.83;;;12.40;;
1350;SDS011;669;50.206;9.998;2022-11-20T05:46:01;21.47;;;13.83;;
1350;SDS011;669;50.206;9.998;2022-11-20T05:48:29;19.00;;;13.03;;
1350;SDS011;669;50.206;9.998;2022-11-20T05:50:57;19.07;;;12.10;;
1350;SDS011;669;50.206;9.998;2022-11-20T05:53:25;21.43;;;13.07;;
1350;SDS011;669;50.206;9.998;2022-11-20T05:55:57;22.30;;;12.33;;
1350;SDS011;669;50.206;9.998;2022-11-20T05:58:28;15.97;;;10.37;;
1350;SDS011;669;50.206;9.998;2022-11-20T06:01:02;18.33;;;11.27;;
1350;SDS011;669;50.206;9.998;2022-11-20T06:03:32;16.80;;;10.77;;
1350;SDS011;669;50.206;9.998;2022-11-20T06:06:00;18.63;;;11.07;;
1350;SDS011;669;50.206;9.998;2022-11-20T06:08:28;17.57;;;11.63;;
1350;SDS011;669;50.206;9.998;2022-11-20T06:10:56;17.47;;;10.53;;
1350;SDS011;669;50.206;9.998;2022-11-20T06:13:24;24.27;;;12.60;;
1350;SDS011;669;50.206;9.998;2022-11-20T06:15:54;18.17;;;11.97;;
1350;SDS011;669;50.206;9.998;2022-11-20T06:18:21;19.30;;;12.73;;
1350;SDS011;669;50.206;9.998;2022-11-20T06:20:49;17.87;;;11.63;;
1350;SDS011;669;50.206;9.998;2022-11-20T06:23:27;18.13;;;11.77;;
1350;SDS011;669;50.206;9.998;2022-11-20T06:25:56;19.83;;;11.33;;
1350;SDS011;669;50.206;9.998;2022-11-20T06:28:24;18.07;;;11.67;;
1350;SDS011;669;50.206;9.998;2022-11-20T06:30:53;21.47;;;13.13;;
1350;SDS011;669;50.206;9.998;2022-11-20T06:33:21;17.83;;;11.60;;
1350;SDS011;669;50.206;9.998;2022-11-20T06:35:49;18.80;;;10.17;;
1350;SDS011;669;50.206;9.998;2022-11-20T06:38:24;21.67;;;11.80;;
1350;SDS011;669;50.206;9.998;2022-11-20T06:40:53;19.17;;;11.27;;
1350;SDS011;669;50.206;9.998;2022-11-20T06:43:21;16.10;;;10.40;;
1350;SDS011;669;50.206;9.998;2022-11-20T06:45:51;16.67;;;10.93;;
1350;SDS011;669;50.206;9.998;2022-11-20T06:48:21;17.23;;;10.47;;
1350;SDS011;669;50.206;9.998;2022-11-20T06:50:50;18.47;;;12.27;;
1350;SDS011;669;50.206;9.998;2022-11-20T06:53:17;19.00;;;11.93;;
1350;SDS011;669;50.206;9.998;2022-11-20T06:55:46;17.90;;;11.60;;
1350;SDS011;669;50.206;9.998;2022-11-20T06:58:15;17.33;;;11.63;;
1350;SDS011;669;50.206;9.998;2022-11-20T07:00:44;17.90;;;10.73;;
1350;SDS011;669;50.206;9.998;2022-11-20T07:03:13;15.50;;;9.30;;
1350;SDS011;669;50.206;9.998;2022-11-20T07:05:41;21.53;;;12.50;;
1350;SDS011;669;50.206;9.998;2022-11-20T07:08:09;18.17;;;11.70;;
1350;SDS011;669;50.206;9.998;2022-11-20T07:10:38;21.00;;;13.47;;
1350;SDS011;669;50.206;9.998;2022-11-20T07:13:06;26.40;;;15.03;;
1350;SDS011;669;50.206;9.998;2022-11-20T07:15:34;26.10;;;14.90;;
1350;SDS011;669;50.206;9.998;2022-11-20T07:18:02;19.57;;;12.30;;
1350;SDS011;669;50.206;9.998;2022-11-20T07:20:31;25.03;;;14.60;;
1350;SDS011;669;50.206;9.998;2022-11-20T07:22:59;21.77;;;12.50;;
1350;SDS011;669;50.206;9.998;2022-11-20T07:25:27;18.87;;;12.90;;
1350;SDS011;669;50.206;9.998;2022-11-20T07:27:56;20.57;;;13.80;;
1350;SDS011;669;50.206;9.998;2022-11-20T07:30:25;25.17;;;15.23;;
1350;SDS011;669;50.206;9.998;2022-11-20T07:32:53;15.67;;;11.00;;
1350;SDS011;669;50.206;9.998;2022-11-20T07:35:22;19.97;;;11.17;;
1350;SDS011;669;50.206;9.998;2022-11-20T07:37:52;20.07;;;12.57;;
1350;SDS011;669;50.206;9.998;2022-11-20T07:40:20;19.27;;;11.20;;
1350;SDS011;669;50.206;9.998;2022-11-20T07:42:48;17.10;;;10.70;;
1350;SDS011;669;50.206;9.998;2022-11-20T07:45:16;16.47;;;11.03;;
1350;SDS011;669;50.206;9.998;2022-11-20T07:47:44;17.37;;;11.17;;
1350;SDS011;669;50.206;9.998;2022-11-20T07:50:13;17.43;;;10.73;;
1350;SDS011;669;50.206;9.998;2022-11-20T07:52:41;16.67;;;10.37;;
1350;SDS011;669;50.206;9.998;2022-11-20T07:55:11;21.07;;;13.20;;
1350;SDS011;669;50.206;9.998;2022-11-20T07:57:39;25.20;;;14.50;;
1350;SDS011;669;50.206;9.998;2022-11-20T08:00:08;21.33;;;15.13;;
1350;SDS011;669;50.206;9.998;2022-11-20T08:02:38;20.40;;;12.40;;
1350;SDS011;669;50.206;9.998;2022-11-20T08:05:07;21.60;;;13.40;;
1350;SDS011;669;50.206;9.998;2022-11-20T08:07:36;25.27;;;14.03;;
1350;SDS011;669;50.206;9.998;2022-11-20T08:10:05;22.50;;;13.60;;
1350;SDS011;669;50.206;9.998;2022-11-20T08:12:40;17.07;;;11.70;;
1350;SDS011;669;50.206;9.998;2022-11-20T08:15:28;21.10;;;12.10;;
1350;SDS011;669;50.206;9.998;2022-11-20T08:17:59;19.37;;;11.93;;
1350;SDS011;669;50.206;9.998;2022-11-20T08:20:47;21.50;;;12.37;;
1350;SDS011;669;50.206;9.998;2022-11-20T08:23:15;24.17;;;15.23;;
1350;SDS011;669;50.206;9.998;2022-11-20T08:25:43;23.43;;;13.20;;
1350;SDS011;669;50.206;9.998;2022-11-20T08:28:17;21.37;;;13.17;;
1350;SDS011;669;50.206;9.998;2022-11-20T08:30:47;24.93;;;13.37;;
1350;SDS011;669;50.206;9.998;2022-11-20T08:33:16;20.20;;;13.47;;
1350;SDS011;669;50.206;9.998;2022-11-20T08:35:44;26.87;;;16.37;;
1350;SDS011;669;50.206;9.998;2022-11-20T08:38:12;30.53;;;15.83;;
1350;SDS011;669;50.206;9.998;2022-11-20T08:40:40;27.17;;;16.37;;
1350;SDS011;669;50.206;9.998;2022-11-20T08:43:30;26.87;;;15.50;;
1350;SDS011;669;50.206;9.998;2022-11-20T08:45:57;28.10;;;16.40;;
1350;SDS011;669;50.206;9.998;2022-11-20T08:48:25;23.63;;;13.77;;
1350;SDS011;669;50.206;9.998;2022-11-20T08:50:53;28.67;;;17.17;;
1350;SDS011;669;50.206;9.998;2022-11-20T08:53:25;23.40;;;14.53;;
1350;SDS011;669;50.206;9.998;2022-11-20T08:55:53;28.63;;;15.77;;
1350;SDS011;669;50.206;9.998;2022-11-20T08:58:21;27.20;;;16.37;;
1350;SDS011;669;50.206;9.998;2022-11-20T09:00:51;33.00;;;16.00;;
1350;SDS011;669;50.206;9.998;2022-11-20T09:03:19;27.47;;;16.67;;
1350;SDS011;669;50.206;9.998;2022-11-20T09:05:47;26.50;;;15.13;;
1350;SDS011;669;50.206;9.998;2022-11-20T09:08:15;29.23;;;16.67;;
1350;SDS011;669;50.206;9.998;2022-11-20T09:10:43;24.10;;;13.77;;
1350;SDS011;669;50.206;9.998;2022-11-20T09:13:11;26.70;;;14.97;;
1350;SDS011;669;50.206;9.998;2022-11-20T09:15:39;31.33;;;15.50;;
1350;SDS011;669;50.206;9.998;2022-11-20T09:18:09;21.40;;;13.33;;
1350;SDS011;669;50.206;9.998;2022-11-20T09:20:37;23.83;;;14.83;;
1350;SDS011;669;50.206;9.998;2022-11-20T09:23:05;26.73;;;14.00;;
1350;SDS011;669;50.206;9.998;2022-11-20T09:25:32;37.53;;;23.80;;
1350;SDS011;669;50.206;9.998;2022-11-20T09:28:00;36.17;;;20.50;;
1350;SDS011;669;50.206;9.998;2022-11-20T09:30:28;33.67;;;21.30;;
1350;SDS011;669;50.206;9.998;2022-11-20T09:32:57;34.13;;;20.17;;
1350;SDS011;669;50.206;9.998;2022-11-20T09:35:26;33.90;;;17.43;;
1350;SDS011;669;50.206;9.998;2022-11-20T09:37:54;33.33;;;18.80;;
1350;SDS011;669;50.206;9.998;2022-11-20T09:40:22;33.70;;;17.07;;
1350;SDS011;669;50.206;9.998;2022-11-20T09:42:54;37.63;;;19.37;;
1350;SDS011;669;50.206;9.998;2022-11-20T09:45:28;30.43;;;18.07;;
1350;SDS011;669;50.206;9.998;2022-11-20T09:48:20;34.50;;;20.17;;
1350;SDS011;669;50.206;9.998;2022-11-20T09:50:59;37.53;;;19.63;;
1350;SDS011;669;50.206;9.998;2022-11-20T09:53:31;36.87;;;19.87;;
1350;SDS011;669;50.206;9.998;2022-11-20T09:56:07;31.40;;;16.57;;
1350;SDS011;669;50.206;9.998;2022-11-20T09:58:38;32.77;;;17.10;;
1350;SDS011;669;50.206;9.998;2022-11-20T10:01:10;32.47;;;17.23;;
1350;SDS011;669;50.206;9.998;2022-11-20T10:03:46;37.90;;;21.37;;
1350;SDS011;669;50.206;9.998;2022-11-20T10:06:24;37.03;;;18.67;;
1350;SDS011;669;50.206;9.998;2022-11-20T10:09:00;39.53;;;19.43;;
1350;SDS011;669;50.206;9.998;2022-11-20T10:11:37;32.07;;;18.50;;
1350;SDS011;669;50.206;9.998;2022-11-20T10:14:16;32.80;;;17.80;;
1350;SDS011;669;50.206;9.998;2022-11-20T10:16:56;34.23;;;18.33;;
1350;SDS011;669;50.206;9.998;2022-11-20T10:22:23;31.73;;;17.07;;
1350;SDS011;669;50.206;9.998;2022-11-20T10:25:00;36.80;;;19.10;;
1350;SDS011;669;50.206;9.998;2022-11-20T10:27:48;33.50;;;17.90;;
1350;SDS011;669;50.206;9.998;2022-11-20T10:30:25;37.00;;;19.53;;
1350;SDS011;669;50.206;9.998;2022-11-20T10:32:58;28.43;;;16.60;;
1350;SDS011;669;50.206;9.998;2022-11-20T10:35:33;32.50;;;18.23;;
1350;SDS011;669;50.206;9.998;2022-11-20T10:38:08;30.10;;;15.50;;
1350;SDS011;669;50.206;9.998;2022-11-20T10:40:43;25.13;;;14.80;;
1350;SDS011;669;50.206;9.998;2022-11-20T10:43:13;33.93;;;18.50;;
1350;SDS011;669;50.206;9.998;2022-11-20T10:45:49;25.30;;;15.57;;
1350;SDS011;669;50.206;9.998;2022-11-20T10:48:22;30.00;;;16.47;;
1350;SDS011;669;50.206;9.998;2022-11-20T10:50:59;28.53;;;14.90;;
1350;SDS011;669;50.206;9.998;2022-11-20T10:53:53;33.53;;;18.27;;
1350;SDS011;669;50.206;9.998;2022-11-20T10:56:26;28.17;;;17.80;;
1350;SDS011;669;50.206;9.998;2022-11-20T11:01:54;28.77;;;16.80;;
1350;SDS011;669;50.206;9.998;2022-11-20T11:04:28;22.93;;;16.10;;
1350;SDS011;669;50.206;9.998;2022-11-20T11:07:05;24.00;;;14.77;;
1350;SDS011;669;50.206;9.998;2022-11-20T11:09:41;25.77;;;14.60;;
1350;SDS011;669;50.206;9.998;2022-11-20T11:12:11;30.23;;;17.30;;
1350;SDS011;669;50.206;9.998;2022-11-20T11:14:43;26.20;;;14.30;;
1350;SDS011;669;50.206;9.998;2022-11-20T11:17:22;26.30;;;15.57;;
1350;SDS011;669;50.206;9.998;2022-11-20T11:20:01;23.90;;;13.80;;
1350;SDS011;669;50.206;9.998;2022-11-20T11:22:34;22.63;;;14.30;;
1350;SDS011;669;50.206;9.998;2022-11-20T11:25:13;25.33;;;16.40;;
1350;SDS011;669;50.206;9.998;2022-11-20T11:27:52;22.40;;;14.23;;
1350;SDS011;669;50.206;9.998;2022-11-20T11:30:22;26.40;;;15.33;;
1350;SDS011;669;50.206;9.998;2022-11-20T11:33:02;26.17;;;15.70;;
1350;SDS011;669;50.206;9.998;2022-11-20T11:35:32;27.63;;;15.47;;
1350;SDS011;669;50.206;9.998;2022-11-20T11:38:04;20.90;;;12.73;;
1350;SDS011;669;50.206;9.998;2022-11-20T11:40:35;25.17;;;14.07;;
1350;SDS011;669;50.206;9.998;2022-11-20T11:43:07;22.17;;;14.20;;
1350;SDS011;669;50.206;9.998;2022-11-20T11:46:03;27.63;;;16.10;;
1350;SDS011;669;50.206;9.998;2022-11-20T11:48:39;27.93;;;15.20;;
1350;SDS011;669;50.206;9.998;2022-11-20T11:51:12;28.33;;;15.63;;
1350;SDS011;669;50.206;9.998;2022-11-20T11:53:47;27.53;;;17.10;;
1350;SDS011;669;50.206;9.998;2022-11-20T11:56:17;31.70;;;16.70;;
1350;SDS011;669;50.206;9.998;2022-11-20T11:58:46;30.83;;;17.00;;
1350;SDS011;669;50.206;9.998;2022-11-20T12:01:20;31.23;;;17.97;;
1350;SDS011;669;50.206;9.998;2022-11-20T12:03:55;31.07;;;16.93;;
1350;SDS011;669;50.206;9.998;2022-11-20T12:06:31;27.73;;;15.30;;
1350;SDS011;669;50.206;9.998;2022-11-20T12:09:02;27.20;;;14.70;;
1350;SDS011;669;50.206;9.998;2022-11-20T12:11:34;22.37;;;14.60;;
1350;SDS011;669;50.206;9.998;2022-11-20T12:14:09;25.13;;;14.03;;
1350;SDS011;669;50.206;9.998;2022-11-20T12:16:41;22.10;;;14.23;;
1350;SDS011;669;50.206;9.998;2022-11-20T12:19:10;20.33;;;11.87;;
1350;SDS011;669;50.206;9.998;2022-11-20T12:21:43;19.73;;;11.80;;
1350;SDS011;669;50.206;9.998;2022-11-20T12:24:38;19.23;;;12.00;;
1350;SDS011;669;50.206;9.998;2022-11-20T12:27:21;21.80;;;12.70;;
1350;SDS011;669;50.206;9.998;2022-11-20T12:30:07;18.90;;;11.37;;
1350;SDS011;669;50.206;9.998;2022-11-20T12:32:41;24.33;;;12.93;;
1350;SDS011;669;50.206;9.998;2022-11-20T12:38:30;22.50;;;12.13;;
1350;SDS011;669;50.206;9.998;2022-11-20T12:41:13;17.13;;;10.70;;
1350;SDS011;669;50.206;9.998;2022-11-20T12:44:11;15.93;;;10.17;;
1350;SDS011;669;50.206;9.998;2022-11-20T12:47:12;15.20;;;9.63;;
1350;SDS011;669;50.206;9.998;2022-11-20T12:49:48;12.00;;;8.13;;
1350;SDS011;669;50.206;9.998;2022-11-20T12:52:29;16.73;;;9.87;;
1350;SDS011;669;50.206;9.998;2022-11-20T12:57:57;24.17;;;14.07;;
1350;SDS011;669;50.206;9.998;2022-11-20T13:00:29;20.57;;;12.77;;
1350;SDS011;669;50.206;9.998;2022-11-20T13:06:04;17.70;;;11.47;;
1350;SDS011;669;50.206;9.998;2022-11-20T13:08:39;17.30;;;11.63;;
1350;SDS011;669;50.206;9.998;2022-11-20T13:11:10;20.17;;;11.40;;
1350;SDS011;669;50.206;9.998;2022-11-20T13:13:54;17.47;;;10.50;;
1350;SDS011;669;50.206;9.998;2022-11-20T13:16:40;16.23;;;10.87;;
1350;SDS011;669;50.206;9.998;2022-11-20T13:19:16;14.37;;;10.07;;
1350;SDS011;669;50.206;9.998;2022-11-20T13:21:45;15.63;;;9.53;;
1350;SDS011;669;50.206;9.998;2022-11-20T13:24:22;12.80;;;9.07;;
1350;SDS011;669;50.206;9.998;2022-11-20T13:27:04;20.33;;;11.27;;
1350;SDS011;669;50.206;9.998;2022-11-20T13:29:57;20.67;;;11.47;;
1350;SDS011;669;50.206;9.998;2022-11-20T13:32:29;19.43;;;11.67;;
1350;SDS011;669;50.206;9.998;2022-11-20T13:34:59;14.97;;;9.57;;
1350;SDS011;669;50.206;9.998;2022-11-20T13:37:29;18.40;;;11.13;;
1350;SDS011;669;50.206;9.998;2022-11-20T13:40:05;16.97;;;10.80;;
1350;SDS011;669;50.206;9.998;2022-11-20T13:42:40;15.53;;;10.43;;
1350;SDS011;669;50.206;9.998;2022-11-20T13:45:21;17.47;;;9.97;;
1350;SDS011;669;50.206;9.998;2022-11-20T13:47:52;13.97;;;9.80;;
1350;SDS011;669;50.206;9.998;2022-11-20T13:50:21;13.87;;;9.00;;
1350;SDS011;669;50.206;9.998;2022-11-20T13:53:09;14.90;;;8.77;;
1350;SDS011;669;50.206;9.998;2022-11-20T13:55:51;17.90;;;11.53;;
1350;SDS011;669;50.206;9.998;2022-11-20T13:58:28;26.33;;;15.33;;
1350;SDS011;669;50.206;9.998;2022-11-20T14:01:08;24.03;;;15.67;;
1350;SDS011;669;50.206;9.998;2022-11-20T14:03:39;27.57;;;16.47;;
1350;SDS011;669;50.206;9.998;2022-11-20T14:06:29;28.27;;;16.77;;
1350;SDS011;669;50.206;9.998;2022-11-20T14:08:58;26.77;;;18.10;;
1350;SDS011;669;50.206;9.998;2022-11-20T14:11:27;27.33;;;17.60;;
1350;SDS011;669;50.206;9.998;2022-11-20T14:13:58;35.53;;;20.77;;
1350;SDS011;669;50.206;9.998;2022-11-20T14:16:28;38.40;;;21.57;;
1350;SDS011;669;50.206;9.998;2022-11-20T14:19:16;34.37;;;19.10;;
1350;SDS011;669;50.206;9.998;2022-11-20T14:21:53;37.00;;;19.87;;
1350;SDS011;669;50.206;9.998;2022-11-20T14:24:22;41.87;;;23.60;;
1350;SDS011;669;50.206;9.998;2022-11-20T14:26:53;30.50;;;18.77;;
1350;SDS011;669;50.206;9.998;2022-11-20T14:29:21;33.07;;;18.50;;
1350;SDS011;669;50.206;9.998;2022-11-20T14:31:55;31.70;;;19.20;;
1350;SDS011;669;50.206;9.998;2022-11-20T14:34:26;28.90;;;18.23;;
1350;SDS011;669;50.206;9.998;2022-11-20T14:36:57;28.97;;;18.23;;
1350;SDS011;669;50.206;9.998;2022-11-20T14:39:28;34.43;;;19.20;;
1350;SDS011;669;50.206;9.998;2022-11-20T14:41:58;29.93;;;15.47;;
1350;SDS011;669;50.206;9.998;2022-11-20T14:44:27;32.73;;;18.60;;
1350;SDS011;669;50.206;9.998;2022-11-20T14:46:59;33.00;;;18.00;;
1350;SDS011;669;50.206;9.998;2022-11-20T14:49:30;27.03;;;15.70;;
1350;SDS011;669;50.206;9.998;2022-11-20T14:52:00;26.50;;;16.40;;
1350;SDS011;669;50.206;9.998;2022-11-20T14:54:29;26.03;;;16.63;;
1350;SDS011;669;50.206;9.998;2022-11-20T14:56:58;28.53;;;15.90;;
1350;SDS011;669;50.206;9.998;2022-11-20T14:59:28;28.97;;;15.90;;
1350;SDS011;669;50.206;9.998;2022-11-20T15:01:58;23.60;;;13.73;;
1350;SDS011;669;50.206;9.998;2022-11-20T15:04:28;24.73;;;14.67;;
1350;SDS011;669;50.206;9.998;2022-11-20T15:06:58;24.73;;;14.47;;
1350;SDS011;669;50.206;9.998;2022-11-20T15:09:26;27.60;;;16.00;;
1350;SDS011;669;50.206;9.998;2022-11-20T15:11:55;25.67;;;13.80;;
1350;SDS011;669;50.206;9.998;2022-11-20T15:14:25;25.10;;;14.37;;
1350;SDS011;669;50.206;9.998;2022-11-20T15:16:54;23.17;;;14.13;;
1350;SDS011;669;50.206;9.998;2022-11-20T15:19:23;24.30;;;15.00;;
1350;SDS011;669;50.206;9.998;2022-11-20T15:21:53;22.50;;;13.10;;
1350;SDS011;669;50.206;9.998;2022-11-20T15:24:22;21.67;;;13.63;;
1350;SDS011;669;50.206;9.998;2022-11-20T15:26:51;26.20;;;15.47;;
1350;SDS011;669;50.206;9.998;2022-11-20T15:29:19;27.87;;;15.63;;
1350;SDS011;669;50.206;9.998;2022-11-20T15:31:48;28.67;;;14.47;;
1350;SDS011;669;50.206;9.998;2022-11-20T15:34:17;27.90;;;16.23;;
1350;SDS011;669;50.206;9.998;2022-11-20T15:36:45;31.43;;;17.30;;
1350;SDS011;669;50.206;9.998;2022-11-20T15:39:15;31.40;;;17.40;;
1350;SDS011;669;50.206;9.998;2022-11-20T15:41:44;27.97;;;15.77;;
1350;SDS011;669;50.206;9.998;2022-11-20T15:44:12;28.70;;;16.33;;